Time,TemperatureF,DewpointF,PressureIn,WindDirection,WindDirectionDegrees,WindSpeedMPH,WindSpeedGustMPH,Humidity,HourlyPrecipIn,Conditions,Clouds,dailyrainin,SoftwareType,DateUTC
2013-02-16 00:00:00,45.8,32.7,29.31,North,359,5.0,5.0,60,0.00,CLR,,0.00,WeatherDisplay:10.37,2013-02-16 05:00:00,
2013-02-16 00:05:00,45.4,31.9,29.31,NE,38,3.5,3.5,59,0.00,CLR,,0.00,WeatherDisplay:10.37,2013-02-16 05:05:00,
2013-02-16 00:10:00,45.2,31.7,29.31,NE,37,5.8,5.8,59,0.00,CLR,,0.00,WeatherDisplay:10.37,2013-02-16 05:10:00,
2013-02-16 00:15:00,44.9,31.4,29.31,North,0,11.5,11.5,59,0.00,CLR,,0.00,WeatherDisplay:10.37,2013-02-16 05:15:00,
2013-02-16 00:20:00,44.8,31.3,29.31,NE,34,15.0,15.0,59,0.00,CLR,,0.00,WeatherDisplay:10.37,2013-02-16 05:20:00,
2013-02-16 00:23:00,44.6,31.1,29.31,North,356,8.1,8.1,59,0.00,CLR,,0.00,WeatherDisplay:10.37,2013-02-16 05:23:00,
2013-02-16 00:28:00,44.6,31.1,29.31,North,354,8.1,8.1,59,0.00,CLR,,0.00,WeatherDisplay:10.37,2013-02-16 05:28:00,
2013-02-16 00:33:00,44.2,30.8,29.31,North,359,13.8,13.8,59,0.00,CLR,,0.00,WeatherDisplay:10.37,2013-02-16 05:33:00,
2013-02-16 00:38:00,44.1,30.7,29.31,North,11,3.5,3.5,59,0.00,CLR,,0.00,WeatherDisplay:10.37,2013-02-16 05:38:00,
2013-02-16 00:43:00,44.1,31.1,29.31,North,0,6.9,7.0,60,0.00,CLR,,0.00,WeatherDisplay:10.37,2013-02-16 05:43:00,
2013-02-16 00:48:00,43.8,30.8,29.31,NNW,346,11.5,11.5,60,0.00,CLR,,0.00,WeatherDisplay:10.37,2013-02-16 05:48:00,
2013-02-16 00:53:00,43.8,30.8,29.31,North,354,4.6,4.7,60,0.00,CLR,,0.00,WeatherDisplay:10.37,2013-02-16 05:53:00,
2013-02-16 00:58:00,43.8,30.8,29.31,North,359,2.3,2.3,60,0.00,CLR,,0.00,WeatherDisplay:10.37,2013-02-16 05:58:00,
2013-02-16 01:03:00,43.8,30.8,29.31,NNW,342,11.5,11.5,60,0.00,CLR,,0.00,WeatherDisplay:10.37,2013-02-16 06:03:00,
2013-02-16 01:08:00,43.1,30.6,29.31,NNE,17,3.5,3.5,61,0.00,CLR,,0.00,WeatherDisplay:10.37,2013-02-16 06:08:00,
2013-02-16 01:13:00,43.1,30.6,29.31,North,359,3.5,3.5,61,0.00,CLR,,0.00,WeatherDisplay:10.37,2013-02-16 06:13:00,
2013-02-16 01:18:00,42.8,30.3,29.31,North,353,0.0,0.0,61,0.00,CLR,,0.00,WeatherDisplay:10.37,2013-02-16 06:18:00,
2013-02-16 01:23:00,42.8,30.7,29.31,North,0,2.3,2.3,62,0.00,CLR,,0.00,WeatherDisplay:10.37,2013-02-16 06:23:00,
2013-02-16 01:28:00,42.5,30.4,29.30,NE,41,3.5,3.5,62,0.00,CLR,,0.00,WeatherDisplay:10.37,2013-02-16 06:28:00,
2013-02-16 01:33:00,42.5,30.4,29.30,North,0,3.5,3.5,62,0.00,CLR,,0.00,WeatherDisplay:10.37,2013-02-16 06:33:00,
2013-02-16 01:38:00,42.6,30.5,29.30,North,359,1.1,1.1,62,0.00,CLR,,0.00,WeatherDisplay:10.37,2013-02-16 06:38:00,
2013-02-16 01:43:00,42.6,30.5,29.30,North,0,0.0,0.0,62,0.00,CLR,,0.00,WeatherDisplay:10.37,2013-02-16 06:43:00,
2013-02-16 01:48:00,42.6,30.5,29.30,North,357,3.5,3.5,62,0.00,CLR,,0.00,WeatherDisplay:10.37,2013-02-16 06:48:00,
2013-02-16 01:53:00,42.6,30.5,29.30,North,359,0.0,0.2,62,0.00,CLR,,0.00,WeatherDisplay:10.37,2013-02-16 06:53:00,
2013-02-16 01:58:00,42.5,30.4,29.30,North,0,1.1,1.1,62,0.00,CLR,,0.00,WeatherDisplay:10.37,2013-02-16 06:58:00,
2013-02-16 02:03:00,42.5,30.4,29.30,NNE,17,0.0,0.0,62,0.00,CLR,,0.00,WeatherDisplay:10.37,2013-02-16 07:03:00,
2013-02-16 02:08:00,42.5,30.4,29.30,North,359,1.1,1.1,62,0.00,CLR,,0.00,WeatherDisplay:10.37,2013-02-16 07:08:00,
2013-02-16 02:13:00,42.5,30.4,29.29,North,6,0.0,0.0,62,0.00,CLR,,0.00,WeatherDisplay:10.37,2013-02-16 07:13:00,
2013-02-16 02:18:00,42.3,30.2,29.29,North,0,0.0,0.0,62,0.00,CLR,,0.00,WeatherDisplay:10.37,2013-02-16 07:18:00,
2013-02-16 02:23:00,42.3,30.2,29.29,North,350,2.3,2.3,62,0.00,CLR,,0.00,WeatherDisplay:10.37,2013-02-16 07:23:00,
2013-02-16 02:28:00,42.3,30.2,29.29,North,350,2.3,2.3,62,0.00,CLR,,0.00,WeatherDisplay:10.37,2013-02-16 07:28:00,
2013-02-16 02:33:00,42.3,30.2,29.29,North,0,0.0,0.0,62,0.00,CLR,,0.00,WeatherDisplay:10.37,2013-02-16 07:33:00,
2013-02-16 02:38:00,42.3,30.2,29.29,North,350,1.1,1.1,62,0.00,CLR,,0.00,WeatherDisplay:10.37,2013-02-16 07:38:00,
2013-02-16 02:43:00,42.3,30.2,29.29,NE,52,3.5,3.5,62,0.00,CLR,,0.00,WeatherDisplay:10.37,2013-02-16 07:43:00,
2013-02-16 02:48:00,42.3,30.2,29.29,NE,52,1.1,1.1,62,0.00,CLR,,0.00,WeatherDisplay:10.37,2013-02-16 07:48:00,
2013-02-16 02:53:00,42.3,30.2,29.29,North,0,3.5,3.5,62,0.00,CLR,,0.00,WeatherDisplay:10.37,2013-02-16 07:53:00,
2013-02-16 02:58:00,42.3,30.2,29.29,North,0,3.5,3.5,62,0.00,CLR,,0.00,WeatherDisplay:10.37,2013-02-16 07:58:00,
2013-02-16 03:03:00,42.3,30.2,29.29,North,359,0.0,0.0,62,0.00,CLR,,0.00,WeatherDisplay:10.37,2013-02-16 08:03:00,
2013-02-16 03:08:00,42.3,30.2,29.29,North,0,0.0,0.0,62,0.00,CLR,,0.00,WeatherDisplay:10.37,2013-02-16 08:08:00,
2013-02-16 03:13:00,42.3,30.2,29.29,North,359,0.0,0.0,62,0.00,CLR,,0.00,WeatherDisplay:10.37,2013-02-16 08:13:00,
2013-02-16 03:18:00,42.3,30.2,29.29,North,359,0.0,0.0,62,0.00,CLR,,0.00,WeatherDisplay:10.37,2013-02-16 08:18:00,
2013-02-16 03:23:00,42.3,30.2,29.29,NNW,343,0.0,0.0,62,0.00,CLR,,0.00,WeatherDisplay:10.37,2013-02-16 08:23:00,
2013-02-16 03:28:00,42.3,30.2,29.28,NNW,343,0.0,0.0,62,0.00,CLR,,0.00,WeatherDisplay:10.37,2013-02-16 08:28:00,
2013-02-16 03:33:00,42.3,30.2,29.28,NNW,343,0.0,0.0,62,0.00,CLR,,0.00,WeatherDisplay:10.37,2013-02-16 08:33:00,
2013-02-16 03:38:00,42.3,30.2,29.28,North,0,0.0,0.0,62,0.00,CLR,,0.00,WeatherDisplay:10.37,2013-02-16 08:38:00,
2013-02-16 03:43:00,42.3,30.2,29.29,North,0,0.0,0.0,62,0.00,CLR,,0.00,WeatherDisplay:10.37,2013-02-16 08:43:00,
2013-02-16 03:48:00,42.3,30.2,29.29,North,0,0.0,0.0,62,0.00,CLR,,0.00,WeatherDisplay:10.37,2013-02-16 08:48:00,
2013-02-16 03:53:00,42.3,30.2,29.29,North,0,0.0,0.0,62,0.00,CLR,,0.00,WeatherDisplay:10.37,2013-02-16 08:53:00,
2013-02-16 03:58:00,42.3,30.2,29.28,North,0,0.0,0.0,62,0.00,CLR,,0.00,WeatherDisplay:10.37,2013-02-16 08:58:00,
2013-02-16 04:03:00,42.3,30.2,29.28,North,0,0.0,0.0,62,0.00,CLR,,0.00,WeatherDisplay:10.37,2013-02-16 09:03:00,
2013-02-16 04:08:00,42.3,30.2,29.28,North,7,0.0,0.0,62,0.00,CLR,,0.00,WeatherDisplay:10.37,2013-02-16 09:08:00,
2013-02-16 04:13:00,42.3,30.2,29.28,North,7,0.0,0.0,62,0.00,CLR,,0.00,WeatherDisplay:10.37,2013-02-16 09:13:00,
2013-02-16 04:18:00,42.3,30.2,29.28,North,7,0.0,0.0,62,0.00,CLR,,0.00,WeatherDisplay:10.37,2013-02-16 09:18:00,
2013-02-16 04:23:00,42.3,30.2,29.28,North,0,0.0,0.0,62,0.00,CLR,,0.00,WeatherDisplay:10.37,2013-02-16 09:23:00,
2013-02-16 04:28:00,42.3,30.2,29.28,North,0,0.0,0.0,62,0.00,CLR,,0.00,WeatherDisplay:10.37,2013-02-16 09:28:00,
2013-02-16 04:33:00,42.3,30.2,29.28,North,0,0.0,0.0,62,0.00,CLR,,0.00,WeatherDisplay:10.37,2013-02-16 09:33:00,
2013-02-16 04:38:00,42.3,30.2,29.28,North,0,0.0,0.0,62,0.00,CLR,,0.00,WeatherDisplay:10.37,2013-02-16 09:38:00,
2013-02-16 04:43:00,42.3,30.2,29.29,North,0,0.0,0.0,62,0.00,CLR,,0.00,WeatherDisplay:10.37,2013-02-16 09:43:00,
2013-02-16 04:48:00,42.3,30.2,29.29,North,0,0.0,0.0,62,0.00,CLR,,0.00,WeatherDisplay:10.37,2013-02-16 09:48:00,
2013-02-16 04:53:00,42.3,30.2,29.29,North,0,0.0,0.0,62,0.00,CLR,,0.00,WeatherDisplay:10.37,2013-02-16 09:53:00,
2013-02-16 04:58:00,42.3,30.2,29.28,North,0,0.0,0.0,62,0.00,CLR,,0.00,WeatherDisplay:10.37,2013-02-16 09:58:00,
2013-02-16 05:03:00,42.3,30.2,29.28,North,0,0.0,0.0,62,0.00,CLR,,0.00,WeatherDisplay:10.37,2013-02-16 10:03:00,
2013-02-16 05:08:00,42.3,30.2,29.28,North,0,0.0,0.0,62,0.00,CLR,,0.00,WeatherDisplay:10.37,2013-02-16 10:08:00,
2013-02-16 05:13:00,42.3,30.2,29.28,North,0,0.0,0.0,62,0.00,CLR,,0.00,WeatherDisplay:10.37,2013-02-16 10:13:00,
2013-02-16 05:18:00,42.3,30.2,29.28,North,0,0.0,0.0,62,0.00,CLR,,0.00,WeatherDisplay:10.37,2013-02-16 10:18:00,
2013-02-16 05:23:00,42.3,30.2,29.28,North,0,0.0,0.0,62,0.00,CLR,,0.00,WeatherDisplay:10.37,2013-02-16 10:23:00,
2013-02-16 05:28:00,42.3,30.2,29.28,North,359,0.0,0.0,62,0.00,CLR,,0.00,WeatherDisplay:10.37,2013-02-16 10:28:00,
2013-02-16 05:33:00,40.3,28.3,29.28,NNE,18,1.1,0.0,62,0.00,CLR,,0.00,WeatherDisplay:10.37,2013-02-16 10:33:00,
2013-02-16 05:38:00,40.3,33.0,29.28,NNE,18,0.0,0.0,75,0.00,CLR,,0.00,WeatherDisplay:10.37,2013-02-16 10:38:00,
2013-02-16 05:43:00,40.3,33.0,29.27,NNE,18,0.0,0.0,75,0.00,CLR,,0.00,WeatherDisplay:10.37,2013-02-16 10:43:00,
2013-02-16 05:49:00,40.2,33.2,29.27,NNE,18,0.0,0.0,76,0.00,CLR,,0.00,WeatherDisplay:10.37,2013-02-16 10:49:00,
2013-02-16 05:54:00,40.2,33.2,29.27,NNE,18,1.1,0.0,76,0.00,CLR,,0.00,WeatherDisplay:10.37,2013-02-16 10:54:00,
2013-02-16 05:59:00,40.2,33.6,29.27,NNE,18,0.0,0.0,77,0.00,CLR,,0.00,WeatherDisplay:10.37,2013-02-16 10:59:00,
2013-02-16 06:04:00,40.2,33.6,29.27,NNE,28,0.0,0.0,77,0.00,CLR,,0.00,WeatherDisplay:10.37,2013-02-16 11:04:00,
2013-02-16 06:09:00,40.2,33.9,29.27,NNE,28,0.0,0.0,78,0.00,CLR,,0.00,WeatherDisplay:10.37,2013-02-16 11:09:00,
2013-02-16 06:14:00,40.2,33.9,29.27,NNE,27,0.0,0.0,78,0.00,CLR,,0.00,WeatherDisplay:10.37,2013-02-16 11:14:00,
2013-02-16 06:19:00,40.1,34.1,29.27,NNE,27,2.3,2.3,79,0.00,CLR,,0.00,WeatherDisplay:10.37,2013-02-16 11:19:00,
2013-02-16 06:24:00,40.2,34.2,29.27,NNE,25,1.1,1.1,79,0.00,CLR,,0.00,WeatherDisplay:10.37,2013-02-16 11:24:00,
2013-02-16 06:29:00,40.1,34.4,29.26,NNE,24,0.0,0.0,80,0.00,CLR,,0.00,WeatherDisplay:10.37,2013-02-16 11:29:00,
2013-02-16 06:34:00,39.9,34.5,29.26,North,0,3.5,3.5,81,0.00,CLR,,0.00,WeatherDisplay:10.37,2013-02-16 11:34:00,
2013-02-16 06:39:00,39.9,34.9,29.26,NE,42,1.1,2.2,82,0.00,CLR,,0.00,WeatherDisplay:10.37,2013-02-16 11:39:00,
2013-02-16 06:44:00,39.8,35.1,29.27,North,0,3.5,4.6,83,0.00,CLR,,0.00,WeatherDisplay:10.37,2013-02-16 11:44:00,
2013-02-16 06:49:00,39.8,35.1,29.27,NNE,24,3.5,3.5,83,0.00,CLR,,0.00,WeatherDisplay:10.37,2013-02-16 11:49:00,
2013-02-16 06:54:00,39.8,35.1,29.27,NNE,17,3.5,3.5,83,0.00,CLR,,0.00,WeatherDisplay:10.37,2013-02-16 11:54:00,
2013-02-16 06:59:00,39.6,34.9,29.26,ENE,61,8.1,8.1,83,0.00,CLR,,0.00,WeatherDisplay:10.37,2013-02-16 11:59:00,
2013-02-16 07:04:00,39.6,34.9,29.26,North,359,8.1,8.1,83,0.00,CLR,,0.00,WeatherDisplay:10.37,2013-02-16 12:04:00,
2013-02-16 07:09:00,39.6,34.9,29.26,North,359,4.6,5.0,83,0.00,CLR,,0.00,WeatherDisplay:10.37,2013-02-16 12:09:00,
2013-02-16 07:14:00,39.6,34.9,29.26,North,359,4.6,5.0,83,0.00,CLR,,0.00,WeatherDisplay:10.37,2013-02-16 12:14:00,
2013-02-16 07:19:00,39.6,34.9,29.26,North,0,0.0,0.0,83,0.00,CLR,,0.00,WeatherDisplay:10.37,2013-02-16 12:19:00,
2013-02-16 07:24:00,39.6,34.9,29.26,North,0,0.0,0.0,83,0.00,CLR,,0.00,WeatherDisplay:10.37,2013-02-16 12:24:00,
2013-02-16 07:29:00,39.6,34.9,29.26,North,0,0.0,0.0,83,0.00,CLR,,0.00,WeatherDisplay:10.37,2013-02-16 12:29:00,
2013-02-16 07:34:00,38.8,34.1,29.26,North,0,4.6,4.6,83,0.00,CLR,,0.00,WeatherDisplay:10.37,2013-02-16 12:34:00,
2013-02-16 07:39:00,38.6,35.1,29.26,NNW,347,4.0,4.0,87,0.00,CLR,,0.00,WeatherDisplay:10.37,2013-02-16 12:39:00,
2013-02-16 07:44:00,38.5,35.0,29.27,North,359,0.0,0.0,87,0.00,CLR,,0.00,WeatherDisplay:10.37,2013-02-16 12:44:00,
2013-02-16 07:49:00,38.2,35.0,29.27,NNE,17,4.6,4.6,88,0.00,CLR,,0.00,WeatherDisplay:10.37,2013-02-16 12:49:00,
2013-02-16 07:54:00,37.9,34.9,29.27,NNW,343,0.0,0.0,89,0.00,CLR,,0.00,WeatherDisplay:10.37,2013-02-16 12:54:00,
2013-02-16 07:59:00,37.9,34.9,29.27,NNW,343,0.0,0.0,89,0.00,CLR,,0.00,WeatherDisplay:10.37,2013-02-16 12:59:00,
2013-02-16 08:04:00,37.8,35.1,29.27,NE,38,3.5,3.5,90,0.00,CLR,,0.00,WeatherDisplay:10.37,2013-02-16 13:04:00,
2013-02-16 08:09:00,37.6,34.9,29.27,NNE,27,0.0,0.0,90,0.00,CLR,,0.00,WeatherDisplay:10.37,2013-02-16 13:09:00,
2013-02-16 08:14:00,37.5,34.8,29.28,NNE,23,5.8,5.8,90,0.00,CLR,,0.00,WeatherDisplay:10.37,2013-02-16 13:14:00,
2013-02-16 08:19:00,37.5,34.8,29.28,NNE,23,2.3,2.3,90,0.00,CLR,,0.00,WeatherDisplay:10.37,2013-02-16 13:19:00,
2013-02-16 08:24:00,37.5,34.8,29.28,NNE,23,2.3,2.3,90,0.00,CLR,,0.00,WeatherDisplay:10.37,2013-02-16 13:24:00,
2013-02-16 08:29:00,37.5,34.8,29.27,North,0,0.0,0.0,90,0.00,CLR,,0.00,WeatherDisplay:10.37,2013-02-16 13:29:00,
2013-02-16 08:34:00,37.5,34.8,29.27,North,0,0.0,0.0,90,0.00,CLR,,0.00,WeatherDisplay:10.37,2013-02-16 13:34:00,
2013-02-16 08:39:00,37.5,34.8,29.27,North,0,0.0,0.0,90,0.00,CLR,,0.00,WeatherDisplay:10.37,2013-02-16 13:39:00,
2013-02-16 08:44:00,36.8,34.7,29.28,North,350,4.6,4.6,92,0.00,CLR,,0.00,WeatherDisplay:10.37,2013-02-16 13:44:00,
2013-02-16 08:49:00,36.8,34.7,29.28,North,0,1.1,1.1,92,0.00,CLR,,0.00,WeatherDisplay:10.37,2013-02-16 13:49:00,
2013-02-16 08:54:00,36.8,34.7,29.28,North,0,1.1,1.1,92,0.00,CLR,,0.00,WeatherDisplay:10.37,2013-02-16 13:54:00,
2013-02-16 08:59:00,36.8,34.7,29.28,North,0,0.0,0.0,92,0.00,CLR,,0.00,WeatherDisplay:10.37,2013-02-16 13:59:00,
2013-02-16 09:04:00,36.8,34.7,29.28,North,0,0.0,0.0,92,0.00,CLR,,0.00,WeatherDisplay:10.37,2013-02-16 14:04:00,
2013-02-16 09:09:00,36.8,34.7,29.28,North,0,0.0,0.0,92,0.00,CLR,,0.00,WeatherDisplay:10.37,2013-02-16 14:09:00,
2013-02-16 09:14:00,36.8,34.7,29.28,North,0,0.0,0.0,92,0.00,CLR,,0.00,WeatherDisplay:10.37,2013-02-16 14:14:00,
2013-02-16 09:19:00,36.8,34.7,29.28,North,0,0.0,0.0,92,0.00,CLR,,0.00,WeatherDisplay:10.37,2013-02-16 14:19:00,
2013-02-16 09:24:00,36.8,34.7,29.28,North,0,0.0,0.0,92,0.00,CLR,,0.00,WeatherDisplay:10.37,2013-02-16 14:24:00,
2013-02-16 09:29:00,36.8,35.0,29.28,North,350,2.0,2.0,93,0.00,CLR,,0.00,WeatherDisplay:10.37,2013-02-16 14:29:00,
2013-02-16 09:34:00,34.3,32.5,29.28,North,356,0.0,0.0,93,0.01,RA,,0.01,WeatherDisplay:10.37,2013-02-16 14:34:00,
2013-02-16 09:39:00,34.1,32.3,29.28,North,3,4.6,4.6,93,0.01,RA,,0.01,WeatherDisplay:10.37,2013-02-16 14:39:00,
2013-02-16 09:44:00,33.8,32.0,29.28,North,3,0.0,0.0,93,0.01,,,0.01,WeatherDisplay:10.37,2013-02-16 14:44:00,
2013-02-16 09:49:00,33.7,31.9,29.28,North,357,3.5,0.0,93,0.02,RA,,0.02,WeatherDisplay:10.37,2013-02-16 14:49:00,
2013-02-16 09:54:00,33.5,31.7,29.28,NNW,343,7.0,7.0,93,0.02,RA,,0.02,WeatherDisplay:10.37,2013-02-16 14:54:00,
2013-02-16 09:59:00,33.2,31.4,29.27,North,0,2.3,2.7,93,0.02,CLR,,0.02,WeatherDisplay:10.37,2013-02-16 14:59:00,
2013-02-16 10:04:00,33.1,31.3,29.27,North,356,5.8,5.8,93,0.02,CLR,,0.02,WeatherDisplay:10.37,2013-02-16 15:04:00,
2013-02-16 10:09:00,32.9,31.4,29.27,North,353,0.0,0.0,94,0.02,CLR,,0.02,WeatherDisplay:10.37,2013-02-16 15:09:00,
2013-02-16 10:14:00,32.9,31.4,29.28,North,6,0.0,0.0,94,0.02,CLR,,0.02,WeatherDisplay:10.37,2013-02-16 15:14:00,
2013-02-16 10:19:00,32.9,31.4,29.28,North,6,0.0,0.0,94,0.02,CLR,,0.02,WeatherDisplay:10.37,2013-02-16 15:19:00,
2013-02-16 10:24:00,32.9,31.4,29.28,North,6,0.0,0.0,94,0.02,CLR,,0.02,WeatherDisplay:10.37,2013-02-16 15:24:00,
2013-02-16 10:29:00,32.8,31.3,29.26,North,6,0.0,0.0,94,0.02,CLR,,0.02,WeatherDisplay:10.37,2013-02-16 15:29:00,
2013-02-16 10:34:00,32.8,31.3,29.26,North,8,3.5,3.5,94,0.01,CLR,,0.02,WeatherDisplay:10.37,2013-02-16 15:34:00,
2013-02-16 10:39:00,32.8,31.3,29.26,NNE,14,0.0,0.0,94,0.01,CLR,,0.02,WeatherDisplay:10.37,2013-02-16 15:39:00,
2013-02-16 10:44:00,32.8,31.3,29.26,NNE,17,0.0,0.0,94,0.01,CLR,,0.02,WeatherDisplay:10.37,2013-02-16 15:44:00,
2013-02-16 10:49:00,32.8,31.3,29.26,NNE,17,0.0,0.0,94,0.00,CLR,,0.02,WeatherDisplay:10.37,2013-02-16 15:49:00,
2013-02-16 10:54:00,32.8,31.5,29.26,NNE,16,0.0,0.6,95,0.00,CLR,,0.02,WeatherDisplay:10.37,2013-02-16 15:54:00,
2013-02-16 10:59:00,32.8,31.5,29.26,NNE,16,0.0,0.0,95,0.00,CLR,,0.02,WeatherDisplay:10.37,2013-02-16 15:59:00,
2013-02-16 11:04:00,32.8,31.5,29.26,NNE,16,0.0,0.0,95,0.00,CLR,,0.02,WeatherDisplay:10.37,2013-02-16 16:04:00,
2013-02-16 11:09:00,32.8,31.5,29.26,NNE,16,0.0,0.0,95,0.00,CLR,,0.02,WeatherDisplay:10.37,2013-02-16 16:09:00,
2013-02-16 11:14:00,32.8,31.5,29.26,NNE,16,0.0,0.0,95,0.01,RA,,0.03,WeatherDisplay:10.37,2013-02-16 16:14:00,
2013-02-16 11:19:00,32.8,31.5,29.26,NNE,16,0.0,0.0,95,0.01,RA,,0.03,WeatherDisplay:10.37,2013-02-16 16:19:00,
2013-02-16 11:24:00,32.8,31.5,29.26,North,0,0.0,0.0,95,0.01,,,0.03,WeatherDisplay:10.37,2013-02-16 16:24:00,
2013-02-16 11:29:00,32.8,31.5,29.26,North,4,0.0,0.0,95,0.01,CLR,,0.03,WeatherDisplay:10.37,2013-02-16 16:29:00,
2013-02-16 11:34:00,32.8,31.5,29.26,North,1,0.0,0.0,95,0.01,CLR,,0.03,WeatherDisplay:10.37,2013-02-16 16:34:00,
2013-02-16 11:39:00,32.8,31.5,29.26,North,0,0.0,0.0,95,0.01,CLR,,0.03,WeatherDisplay:10.37,2013-02-16 16:39:00,
2013-02-16 11:44:00,32.8,31.5,29.26,North,0,0.0,0.0,95,0.02,RA,,0.04,WeatherDisplay:10.37,2013-02-16 16:44:00,
2013-02-16 11:49:00,32.8,31.5,29.26,North,1,0.0,0.0,95,0.02,RA,,0.04,WeatherDisplay:10.37,2013-02-16 16:49:00,
2013-02-16 11:54:00,32.9,31.6,29.26,North,359,0.0,0.0,95,0.02,CLR,,0.04,WeatherDisplay:10.37,2013-02-16 16:54:00,
2013-02-16 11:59:00,32.9,31.6,29.25,North,0,0.0,0.0,95,0.02,CLR,,0.04,WeatherDisplay:10.37,2013-02-16 16:59:00,
2013-02-16 12:04:00,32.9,31.6,29.25,NNE,17,0.0,0.0,95,0.02,CLR,,0.04,WeatherDisplay:10.37,2013-02-16 17:04:00,
2013-02-16 12:09:00,32.9,31.6,29.25,North,7,0.0,0.0,95,0.03,RA,,0.05,WeatherDisplay:10.37,2013-02-16 17:09:00,
2013-02-16 12:14:00,32.9,31.9,29.24,North,6,2.3,2.3,96,0.02,RA,,0.05,WeatherDisplay:10.37,2013-02-16 17:14:00,
2013-02-16 12:19:00,32.9,31.9,29.24,North,359,2.3,2.3,96,0.02,,,0.05,WeatherDisplay:10.37,2013-02-16 17:19:00,
2013-02-16 12:24:00,32.9,31.9,29.24,North,354,2.3,2.3,96,0.02,CLR,,0.05,WeatherDisplay:10.37,2013-02-16 17:24:00,
2013-02-16 12:29:00,33.1,32.1,29.23,North,356,5.8,5.8,96,0.03,RA,,0.06,WeatherDisplay:10.37,2013-02-16 17:29:00,
2013-02-16 12:34:00,33.1,31.8,29.23,North,0,6.9,6.9,95,0.03,RA,,0.06,WeatherDisplay:10.37,2013-02-16 17:34:00,
2013-02-16 12:39:00,33.1,31.8,29.23,North,352,5.8,5.8,95,0.03,,,0.06,WeatherDisplay:10.37,2013-02-16 17:39:00,
2013-02-16 12:44:00,33.1,31.8,29.22,NE,42,5.8,5.8,95,0.02,CLR,,0.06,WeatherDisplay:10.37,2013-02-16 17:44:00,
2013-02-16 12:49:00,33.2,31.9,29.22,NNE,21,4.6,4.6,95,0.03,RA,,0.07,WeatherDisplay:10.37,2013-02-16 17:49:00,
2013-02-16 12:54:00,33.4,32.1,29.22,NE,42,3.0,3.0,95,0.03,RA,,0.07,WeatherDisplay:10.37,2013-02-16 17:54:00,
2013-02-16 12:59:00,33.4,32.1,29.21,NNE,25,0.0,0.0,95,0.04,RA,,0.08,WeatherDisplay:10.37,2013-02-16 17:59:00,
2013-02-16 13:04:00,33.4,32.1,29.21,North,359,3.5,3.5,95,0.04,RA,,0.08,WeatherDisplay:10.37,2013-02-16 18:04:00,
2013-02-16 13:09:00,33.4,32.1,29.21,North,4,5.8,5.8,95,0.03,,,0.08,WeatherDisplay:10.37,2013-02-16 18:09:00,
2013-02-16 13:14:00,33.4,32.4,29.20,North,0,0.0,0.0,96,0.04,RA,,0.09,WeatherDisplay:10.37,2013-02-16 18:14:00,
2013-02-16 13:19:00,33.5,32.5,29.20,NE,35,3.5,3.5,96,0.04,RA,,0.09,WeatherDisplay:10.37,2013-02-16 18:19:00,
2013-02-16 13:24:00,33.4,32.4,29.20,North,3,3.5,3.5,96,0.04,,,0.09,WeatherDisplay:10.37,2013-02-16 18:24:00,
2013-02-16 13:29:00,33.4,32.4,29.20,NNE,13,5.8,5.8,96,0.03,CLR,,0.09,WeatherDisplay:10.37,2013-02-16 18:29:00,
2013-02-16 13:34:00,33.2,32.2,29.20,North,0,8.1,8.1,96,0.04,RA,,0.10,WeatherDisplay:10.37,2013-02-16 18:34:00,
2013-02-16 13:39:00,33.4,32.4,29.20,NE,51,8.1,8.1,96,0.04,RA,,0.10,WeatherDisplay:10.37,2013-02-16 18:39:00,
2013-02-16 13:44:00,33.4,32.4,29.20,NE,52,3.5,3.5,96,0.04,CLR,,0.10,WeatherDisplay:10.37,2013-02-16 18:44:00,
2013-02-16 13:49:00,33.4,32.4,29.20,NE,40,3.5,3.5,96,0.04,RA,,0.11,WeatherDisplay:10.37,2013-02-16 18:49:00,
2013-02-16 13:54:00,33.4,32.4,29.20,NNE,28,4.6,4.6,96,0.04,RA,,0.11,WeatherDisplay:10.37,2013-02-16 18:54:00,
2013-02-16 13:59:00,33.5,32.5,29.19,NNE,25,2.0,2.0,96,0.03,,,0.11,WeatherDisplay:10.37,2013-02-16 18:59:00,
2013-02-16 14:04:00,33.5,32.5,29.19,North,359,0.0,0.0,96,0.03,CLR,,0.11,WeatherDisplay:10.37,2013-02-16 19:04:00,
2013-02-16 14:09:00,33.5,32.5,29.19,North,0,5.0,5.0,96,0.04,RA,,0.12,WeatherDisplay:10.37,2013-02-16 19:09:00,
2013-02-16 14:14:00,33.4,32.4,29.18,North,8,3.5,3.5,96,0.03,RA,,0.12,WeatherDisplay:10.37,2013-02-16 19:14:00,
2013-02-16 14:19:00,33.5,32.5,29.18,North,8,0.0,0.1,96,0.03,CLR,,0.12,WeatherDisplay:10.37,2013-02-16 19:19:00,
2013-02-16 14:24:00,33.5,32.5,29.18,NW,322,5.8,5.8,96,0.04,RA,,0.13,WeatherDisplay:10.37,2013-02-16 19:24:00,
2013-02-16 14:29:00,33.5,32.5,29.18,NNW,347,4.0,4.0,96,0.04,RA,,0.13,WeatherDisplay:10.37,2013-02-16 19:29:00,
2013-02-16 14:34:00,33.4,32.4,29.18,North,1,3.5,3.5,96,0.03,CLR,,0.13,WeatherDisplay:10.37,2013-02-16 19:34:00,
2013-02-16 14:39:00,33.4,32.4,29.18,NNE,20,3.5,3.5,96,0.04,RA,,0.14,WeatherDisplay:10.37,2013-02-16 19:39:00,
2013-02-16 14:44:00,33.4,32.4,29.19,NNE,27,4.6,4.6,96,0.04,RA,,0.14,WeatherDisplay:10.37,2013-02-16 19:44:00,
2013-02-16 14:49:00,33.4,32.4,29.19,North,0,4.6,4.6,96,0.03,,,0.14,WeatherDisplay:10.37,2013-02-16 19:49:00,
2013-02-16 14:54:00,33.2,32.2,29.19,North,0,0.0,0.0,96,0.03,CLR,,0.14,WeatherDisplay:10.37,2013-02-16 19:54:00,
2013-02-16 14:59:00,33.2,32.2,29.18,NNE,17,2.3,2.3,96,0.03,CLR,,0.14,WeatherDisplay:10.37,2013-02-16 19:59:00,
2013-02-16 15:04:00,33.1,32.1,29.18,North,354,1.1,0.0,96,0.03,CLR,,0.14,WeatherDisplay:10.37,2013-02-16 20:04:00,
2013-02-16 15:09:00,32.9,31.9,29.18,North,359,4.6,4.6,96,0.02,CLR,,0.14,WeatherDisplay:10.37,2013-02-16 20:09:00,
2013-02-16 15:14:00,32.9,31.9,29.17,North,0,8.1,8.1,96,0.03,RA,,0.15,WeatherDisplay:10.37,2013-02-16 20:14:00,
2013-02-16 15:19:00,32.8,31.8,29.17,NNE,32,5.8,5.8,96,0.03,RA,,0.15,WeatherDisplay:10.37,2013-02-16 20:19:00,
2013-02-16 15:24:00,32.8,31.8,29.17,North,356,2.3,2.3,96,0.02,CLR,,0.15,WeatherDisplay:10.37,2013-02-16 20:24:00,
2013-02-16 15:29:00,32.8,31.8,29.18,North,0,3.5,3.5,96,0.02,CLR,,0.15,WeatherDisplay:10.37,2013-02-16 20:29:00,
2013-02-16 15:34:00,32.8,31.8,29.18,North,11,3.5,3.5,96,0.02,CLR,,0.15,WeatherDisplay:10.37,2013-02-16 20:34:00,
2013-02-16 15:39:00,32.8,31.8,29.18,North,7,3.5,3.5,96,0.02,CLR,,0.15,WeatherDisplay:10.37,2013-02-16 20:39:00,
2013-02-16 15:44:00,32.7,31.7,29.17,North,7,3.5,3.5,96,0.01,CLR,,0.15,WeatherDisplay:10.37,2013-02-16 20:44:00,
2013-02-16 15:49:00,32.7,31.7,29.17,North,352,5.8,5.8,96,0.01,CLR,,0.15,WeatherDisplay:10.37,2013-02-16 20:49:00,
2013-02-16 15:54:00,32.7,31.7,29.17,North,0,5.8,5.8,96,0.02,RA,,0.16,WeatherDisplay:10.37,2013-02-16 20:54:00,
2013-02-16 15:59:00,32.7,31.7,29.17,North,0,6.9,6.9,96,0.02,RA,,0.16,WeatherDisplay:10.37,2013-02-16 20:59:00,
2013-02-16 16:04:00,32.7,31.7,29.17,NNW,340,8.1,8.1,96,0.02,CLR,,0.16,WeatherDisplay:10.37,2013-02-16 21:04:00,
2013-02-16 16:10:00,32.7,31.7,29.17,North,0,6.9,6.9,96,0.02,CLR,,0.16,WeatherDisplay:10.37,2013-02-16 21:10:00,
2013-02-16 16:15:00,32.7,31.7,29.17,North,10,4.6,4.6,96,0.01,CLR,,0.16,WeatherDisplay:10.37,2013-02-16 21:15:00,
2013-02-16 16:20:00,32.7,31.7,29.17,NNE,25,5.8,5.8,96,0.01,CLR,,0.16,WeatherDisplay:10.37,2013-02-16 21:20:00,
2013-02-16 16:25:00,32.7,31.7,29.17,North,3,3.5,3.5,96,0.01,CLR,,0.16,WeatherDisplay:10.37,2013-02-16 21:25:00,
2013-02-16 16:30:00,32.5,31.5,29.17,NNW,339,13.0,13.0,96,0.01,CLR,,0.16,WeatherDisplay:10.37,2013-02-16 21:30:00,
2013-02-16 16:35:00,32.4,31.4,29.17,NNW,328,8.1,8.1,96,0.01,CLR,,0.16,WeatherDisplay:10.37,2013-02-16 21:35:00,
2013-02-16 16:40:00,32.4,31.4,29.17,North,6,11.5,11.5,96,0.02,RA,,0.17,WeatherDisplay:10.37,2013-02-16 21:40:00,
2013-02-16 16:45:00,32.4,31.4,29.17,North,1,7.0,7.0,96,0.02,RA,,0.17,WeatherDisplay:10.37,2013-02-16 21:45:00,
2013-02-16 16:50:00,32.4,31.4,29.17,NNE,14,5.8,0.0,96,0.02,CLR,,0.17,WeatherDisplay:10.37,2013-02-16 21:50:00,
2013-02-16 16:55:00,32.4,31.4,29.17,North,356,6.9,6.9,96,0.01,CLR,,0.17,WeatherDisplay:10.37,2013-02-16 21:55:00,
2013-02-16 17:00:00,32.4,31.4,29.17,NNW,335,11.5,11.5,96,0.01,CLR,,0.17,WeatherDisplay:10.37,2013-02-16 22:00:00,
2013-02-16 17:05:00,32.4,31.4,29.17,NNE,18,4.6,4.6,96,0.01,CLR,,0.17,WeatherDisplay:10.37,2013-02-16 22:05:00,
2013-02-16 17:10:00,32.4,31.4,29.17,North,353,4.6,4.6,96,0.01,CLR,,0.17,WeatherDisplay:10.37,2013-02-16 22:10:00,
2013-02-16 17:15:00,32.4,31.4,29.17,North,0,9.2,9.2,96,0.01,CLR,,0.17,WeatherDisplay:10.37,2013-02-16 22:15:00,
2013-02-16 17:20:00,32.4,31.4,29.17,North,0,3.5,3.5,96,0.01,CLR,,0.17,WeatherDisplay:10.37,2013-02-16 22:20:00,
2013-02-16 17:25:00,32.4,31.4,29.17,North,354,6.9,6.9,96,0.01,CLR,,0.17,WeatherDisplay:10.37,2013-02-16 22:25:00,
2013-02-16 17:30:00,32.4,31.4,29.17,NNW,347,8.1,8.1,96,0.01,CLR,,0.17,WeatherDisplay:10.37,2013-02-16 22:30:00,
2013-02-16 17:35:00,32.4,31.4,29.17,North,357,4.0,4.0,96,0.01,CLR,,0.17,WeatherDisplay:10.37,2013-02-16 22:35:00,
2013-02-16 17:40:00,32.4,31.4,29.17,NNW,340,9.2,9.2,96,0.00,CLR,,0.17,WeatherDisplay:10.37,2013-02-16 22:40:00,
2013-02-16 17:45:00,32.4,31.4,29.16,North,0,5.8,5.8,96,0.00,CLR,,0.17,WeatherDisplay:10.37,2013-02-16 22:45:00,
2013-02-16 17:50:00,32.4,31.4,29.16,North,354,6.9,6.9,96,0.00,CLR,,0.17,WeatherDisplay:10.37,2013-02-16 22:50:00,
2013-02-16 17:55:00,32.4,31.4,29.16,WNW,296,9.2,9.2,96,0.00,CLR,,0.17,WeatherDisplay:10.37,2013-02-16 22:55:00,
2013-02-16 18:00:00,32.4,31.4,29.17,NNE,13,5.8,5.8,96,0.00,CLR,,0.17,WeatherDisplay:10.37,2013-02-16 23:00:00,
2013-02-16 18:05:00,32.4,31.4,29.17,North,0,6.9,6.9,96,0.00,CLR,,0.17,WeatherDisplay:10.37,2013-02-16 23:05:00,
2013-02-16 18:10:00,32.2,31.2,29.17,North,357,8.1,8.1,96,0.00,CLR,,0.17,WeatherDisplay:10.37,2013-02-16 23:10:00,
2013-02-16 18:15:00,32.2,31.2,29.17,North,350,6.9,6.9,96,0.00,CLR,,0.17,WeatherDisplay:10.37,2013-02-16 23:15:00,
2013-02-16 18:20:00,32.2,31.2,29.17,North,3,1.1,2.9,96,0.00,CLR,,0.17,WeatherDisplay:10.37,2013-02-16 23:20:00,
2013-02-16 18:25:00,32.2,31.2,29.17,North,0,3.5,4.1,96,0.00,CLR,,0.17,WeatherDisplay:10.37,2013-02-16 23:25:00,
2013-02-16 18:30:00,32.2,31.2,29.17,North,3,4.6,4.6,96,0.00,CLR,,0.17,WeatherDisplay:10.37,2013-02-16 23:30:00,
2013-02-16 18:35:00,32.2,31.2,29.17,North,0,8.1,8.1,96,0.00,CLR,,0.17,WeatherDisplay:10.37,2013-02-16 23:35:00,
2013-02-16 18:40:00,32.2,31.4,29.17,North,357,6.0,6.0,97,0.00,CLR,,0.17,WeatherDisplay:10.37,2013-02-16 23:40:00,
2013-02-16 18:45:00,32.2,31.4,29.18,North,3,3.5,3.5,97,0.00,CLR,,0.17,WeatherDisplay:10.37,2013-02-16 23:45:00,
2013-02-16 18:50:00,32.2,31.4,29.18,North,354,4.6,4.6,97,0.00,CLR,,0.17,WeatherDisplay:10.37,2013-02-16 23:50:00,
2013-02-16 18:55:00,32.2,31.4,29.18,North,0,4.6,4.6,97,0.00,CLR,,0.17,WeatherDisplay:10.37,2013-02-16 23:55:00,
2013-02-16 19:00:00,32.2,31.4,29.18,NE,52,7.0,7.0,97,0.00,CLR,,0.17,WeatherDisplay:10.37,2013-02-17 00:00:00,
2013-02-16 19:05:00,32.2,31.4,29.18,North,0,5.8,5.8,97,0.00,CLR,,0.17,WeatherDisplay:10.37,2013-02-17 00:05:00,
2013-02-16 19:10:00,32.1,31.3,29.18,NNW,337,6.9,6.9,97,0.00,CLR,,0.17,WeatherDisplay:10.37,2013-02-17 00:10:00,
2013-02-16 19:15:00,32.1,31.3,29.18,NNW,344,6.0,6.4,97,0.00,CLR,,0.17,WeatherDisplay:10.37,2013-02-17 00:15:00,
2013-02-16 19:20:00,32.1,31.3,29.18,NE,45,3.5,5.9,97,0.00,CLR,,0.17,WeatherDisplay:10.37,2013-02-17 00:20:00,
2013-02-16 19:25:00,32.1,31.3,29.18,North,0,5.8,5.8,97,0.00,CLR,,0.17,WeatherDisplay:10.37,2013-02-17 00:25:00,
2013-02-16 19:30:00,31.9,31.1,29.18,North,352,5.8,5.8,97,0.00,CLR,,0.17,WeatherDisplay:10.37,2013-02-17 00:30:00,
2013-02-16 19:35:00,31.9,31.1,29.18,North,350,6.9,6.9,97,0.00,CLR,,0.17,WeatherDisplay:10.37,2013-02-17 00:35:00,
2013-02-16 19:40:00,31.9,31.1,29.18,NNE,31,4.6,5.0,97,0.00,CLR,,0.17,WeatherDisplay:10.37,2013-02-17 00:40:00,
2013-02-16 19:45:00,31.9,31.1,29.18,North,0,4.6,4.8,97,0.00,CLR,,0.17,WeatherDisplay:10.37,2013-02-17 00:45:00,
2013-02-16 19:50:00,31.9,31.1,29.18,North,0,5.8,5.8,97,0.00,CLR,,0.17,WeatherDisplay:10.37,2013-02-17 00:50:00,
2013-02-16 19:55:00,31.8,31.0,29.18,North,1,4.6,4.6,97,0.00,CLR,,0.17,WeatherDisplay:10.37,2013-02-17 00:55:00,
2013-02-16 20:00:00,31.8,31.0,29.19,NNE,20,3.5,3.5,97,0.00,CLR,,0.17,WeatherDisplay:10.37,2013-02-17 01:00:00,
2013-02-16 20:05:00,31.8,31.0,29.19,NNE,14,0.0,0.0,97,0.00,CLR,,0.17,WeatherDisplay:10.37,2013-02-17 01:05:00,
2013-02-16 20:10:00,31.8,31.0,29.19,NNW,347,5.0,5.0,97,0.00,CLR,,0.17,WeatherDisplay:10.37,2013-02-17 01:10:00,
2013-02-16 20:15:00,31.6,30.8,29.19,North,0,2.3,2.9,97,0.00,CLR,,0.17,WeatherDisplay:10.37,2013-02-17 01:15:00,
2013-02-16 20:20:00,31.6,30.8,29.19,North,0,2.3,2.3,97,0.00,CLR,,0.17,WeatherDisplay:10.37,2013-02-17 01:20:00,
2013-02-16 20:25:00,31.6,30.8,29.19,North,1,6.9,6.9,97,0.00,CLR,,0.17,WeatherDisplay:10.37,2013-02-17 01:25:00,
2013-02-16 20:30:00,31.6,30.8,29.19,North,8,6.9,6.9,97,0.00,CLR,,0.17,WeatherDisplay:10.37,2013-02-17 01:30:00,
2013-02-16 20:35:00,31.6,30.8,29.19,North,7,6.9,6.9,97,0.00,CLR,,0.17,WeatherDisplay:10.37,2013-02-17 01:35:00,
2013-02-16 20:40:00,31.6,30.8,29.19,NNW,342,6.0,6.0,97,0.00,CLR,,0.17,WeatherDisplay:10.37,2013-02-17 01:40:00,
2013-02-16 20:45:00,31.6,30.8,29.19,North,7,6.9,6.9,97,0.00,CLR,,0.17,WeatherDisplay:10.37,2013-02-17 01:45:00,
2013-02-16 20:50:00,31.5,30.5,29.19,North,359,4.6,4.6,96,0.00,CLR,,0.17,WeatherDisplay:10.37,2013-02-17 01:50:00,
2013-02-16 20:55:00,31.5,30.7,29.19,NNE,32,4.6,4.6,97,0.00,CLR,,0.17,WeatherDisplay:10.37,2013-02-17 01:55:00,
2013-02-16 21:00:00,31.5,30.7,29.20,NNE,31,6.9,6.9,97,0.00,CLR,,0.17,WeatherDisplay:10.37,2013-02-17 02:00:00,
2013-02-16 21:05:00,31.5,30.5,29.20,North,1,5.8,5.8,96,0.00,CLR,,0.17,WeatherDisplay:10.37,2013-02-17 02:05:00,
2013-02-16 21:10:00,31.5,30.5,29.20,North,354,4.6,4.6,96,0.00,CLR,,0.17,WeatherDisplay:10.37,2013-02-17 02:10:00,
2013-02-16 21:15:00,31.5,30.5,29.20,NNW,343,6.9,6.9,96,0.00,CLR,,0.17,WeatherDisplay:10.37,2013-02-17 02:15:00,
2013-02-16 21:20:00,31.5,30.5,29.20,NNW,344,11.5,11.5,96,0.00,CLR,,0.17,WeatherDisplay:10.37,2013-02-17 02:20:00,
2013-02-16 21:25:00,31.3,30.3,29.20,NNE,13,5.8,5.8,96,0.00,CLR,,0.17,WeatherDisplay:10.37,2013-02-17 02:25:00,
2013-02-16 21:30:00,31.3,30.3,29.21,North,8,12.7,12.7,96,0.00,CLR,,0.17,WeatherDisplay:10.37,2013-02-17 02:30:00,
2013-02-16 21:36:00,31.2,30.2,29.21,North,1,3.5,3.5,96,0.00,CLR,,0.17,WeatherDisplay:10.37,2013-02-17 02:36:00,
2013-02-16 21:41:00,31.0,30.0,29.21,North,8,5.8,5.8,96,0.00,CLR,,0.17,WeatherDisplay:10.37,2013-02-17 02:41:00,
2013-02-16 21:46:00,31.0,30.0,29.21,North,359,6.9,6.9,96,0.00,CLR,,0.17,WeatherDisplay:10.37,2013-02-17 02:46:00,
2013-02-16 21:51:00,31.0,30.0,29.21,NE,34,3.5,3.5,96,0.00,CLR,,0.17,WeatherDisplay:10.37,2013-02-17 02:51:00,
2013-02-16 21:56:00,30.9,29.9,29.21,North,349,6.9,6.9,96,0.00,CLR,,0.17,WeatherDisplay:10.37,2013-02-17 02:56:00,
2013-02-16 22:01:00,30.9,29.9,29.21,North,1,5.8,5.8,96,0.00,CLR,,0.17,WeatherDisplay:10.37,2013-02-17 03:01:00,
2013-02-16 22:06:00,30.9,29.9,29.21,NNE,20,8.1,8.1,96,0.00,CLR,,0.17,WeatherDisplay:10.37,2013-02-17 03:06:00,
2013-02-16 22:11:00,30.9,29.9,29.22,North,8,3.5,3.5,96,0.00,CLR,,0.17,WeatherDisplay:10.37,2013-02-17 03:11:00,
2013-02-16 22:16:00,30.9,29.9,29.22,North,1,5.0,5.0,96,0.00,CLR,,0.17,WeatherDisplay:10.37,2013-02-17 03:16:00,
2013-02-16 22:21:00,30.7,29.7,29.22,North,352,2.3,0.0,96,0.00,CLR,,0.17,WeatherDisplay:10.37,2013-02-17 03:21:00,
2013-02-16 22:26:00,30.7,29.7,29.22,NW,320,4.6,4.6,96,0.00,CLR,,0.17,WeatherDisplay:10.37,2013-02-17 03:26:00,
2013-02-16 22:31:00,30.7,29.7,29.22,NNW,347,6.9,6.9,96,0.00,CLR,,0.17,WeatherDisplay:10.37,2013-02-17 03:31:00,
2013-02-16 22:36:00,30.9,29.9,29.22,North,0,0.0,0.0,96,0.00,CLR,,0.17,WeatherDisplay:10.37,2013-02-17 03:36:00,
2013-02-16 22:41:00,30.9,29.9,29.22,North,359,10.4,10.4,96,0.00,CLR,,0.17,WeatherDisplay:10.37,2013-02-17 03:41:00,
2013-02-16 22:46:00,30.6,29.6,29.22,SSE,151,12.7,12.7,96,0.00,CLR,,0.17,WeatherDisplay:10.37,2013-02-17 03:46:00,
2013-02-16 22:51:00,30.1,29.1,29.22,NNW,333,11.5,11.5,96,0.00,CLR,,0.17,WeatherDisplay:10.37,2013-02-17 03:51:00,
2013-02-16 22:56:00,29.8,28.8,29.23,North,0,4.6,4.6,96,0.00,CLR,,0.17,WeatherDisplay:10.37,2013-02-17 03:56:00,
2013-02-16 23:01:00,29.7,28.7,29.23,North,349,5.8,5.8,96,0.00,CLR,,0.17,WeatherDisplay:10.37,2013-02-17 04:01:00,
2013-02-16 23:06:00,29.5,28.5,29.23,North,0,5.8,5.8,96,0.00,CLR,,0.17,WeatherDisplay:10.37,2013-02-17 04:06:00,
2013-02-16 23:11:00,29.4,28.4,29.23,North,359,6.9,6.9,96,0.00,CLR,,0.17,WeatherDisplay:10.37,2013-02-17 04:11:00,
2013-02-16 23:16:00,29.4,28.4,29.23,North,7,6.0,6.0,96,0.00,CLR,,0.17,WeatherDisplay:10.37,2013-02-17 04:16:00,
2013-02-16 23:21:00,29.3,28.3,29.23,NNW,343,8.1,8.1,96,0.00,CLR,,0.17,WeatherDisplay:10.37,2013-02-17 04:21:00,
2013-02-16 23:26:00,29.1,28.1,29.23,NW,325,10.0,10.0,96,0.00,CLR,,0.17,WeatherDisplay:10.37,2013-02-17 04:26:00,
2013-02-16 23:31:00,29.1,28.1,29.23,NNW,344,8.1,8.1,96,0.00,CLR,,0.17,WeatherDisplay:10.37,2013-02-17 04:31:00,
2013-02-16 23:36:00,29.1,28.1,29.23,North,0,6.9,6.9,96,0.00,CLR,,0.17,WeatherDisplay:10.37,2013-02-17 04:36:00,
2013-02-16 23:41:00,29.3,28.3,29.23,NW,322,5.8,0.0,96,0.00,CLR,,0.17,WeatherDisplay:10.37,2013-02-17 04:41:00,
2013-02-16 23:46:00,29.3,28.3,29.23,NW,318,0.0,0.0,96,0.00,CLR,,0.17,WeatherDisplay:10.37,2013-02-17 04:46:00,
2013-02-16 23:51:00,29.3,28.3,29.23,North,0,0.0,0.0,96,0.00,CLR,,0.17,WeatherDisplay:10.37,2013-02-17 04:51:00,
2013-02-16 23:56:00,29.3,28.3,29.23,NW,313,2.3,2.3,96,0.00,CLR,,0.17,WeatherDisplay:10.37,2013-02-17 04:56:00,